Terminal Aerodrome Forecast
Issued by NWS Charleston, WV

Current Version | Previous Version | Graphics & Text | Print | Product List | Glossary On
Versions: 1 2 3 4 5 6 7 8 9 10 11 12 13 14 15 16 17 18 19 20 21 22 23 24 25 26 27 28
000
FTUS41 KRLX 150253 AAA
TAFPKB
TAF AMD
KPKB 150253Z 1503/1524 VRB03KT P6SM BKN140
     FM150600 00000KT 4SM BR OVC060
     FM151000 00000KT 3SM BR BKN014
     FM151100 00000KT 3SM BR BKN008
     FM151200 00000KT 3SM BR BKN005
     FM151400 00000KT 5SM BR SCT025
     FM152100 27004KT P6SM FEW140=

USA.gov is the U.S. government's official web portal to all federal, state and local government web resources and services.